Time;durP1;ratioP1;P1;durP2;ratioP2;P2;SDS_P1;SDS_P2;PMS_P1;PMS_P2;Temp;Humidity;BMP_temperature;BMP_pressure;BME280_temperature;BME280_humidity;BME280_pressure;Samples;Min_cycle;Max_cycle;Signal;HPM_P1;HPM_P2
2022/06/15 00:04:31;;;;;;;4.27;3.10;;;20.90;25.90;;;;;;10506742;28;20235;-74
2022/06/15 00:09:36;;;;;;;5.90;3.13;;;20.90;25.90;;;;;;10506101;28;20278;-74
2022/06/15 00:14:39;;;;;;;3.50;3.20;;;20.80;25.90;;;;;;10515592;28;20235;-74
2022/06/15 00:19:42;;;;;;;3.33;3.03;;;20.70;25.80;;;;;;10508633;28;20316;-74
2022/06/15 00:24:47;;;;;;;4.40;2.77;;;20.70;25.80;;;;;;10511256;28;20625;-74
2022/06/15 00:29:50;;;;;;;2.97;2.77;;;20.50;26.00;;;;;;10507157;28;20224;-74
2022/06/15 00:34:54;;;;;;;2.77;2.57;;;20.50;25.90;;;;;;10503982;28;20228;-74
2022/06/15 00:39:58;;;;;;;2.53;2.33;;;20.40;26.00;;;;;;10505966;28;20223;-74
2022/06/15 00:45:02;;;;;;;2.97;2.50;;;20.40;26.50;;;;;;10510418;28;20216;-74
2022/06/15 00:50:08;;;;;;;3.03;2.83;;;20.30;26.20;;;;;;10505629;28;20224;-74
2022/06/15 00:55:18;;;;;;;3.70;3.13;;;20.20;26.60;;;;;;10505065;28;20246;-74
2022/06/15 01:00:22;;;;;;;3.50;3.20;;;20.10;27.20;;;;;;10509014;28;20242;-74
2022/06/15 01:05:32;;;;;;;3.17;2.73;;;20.10;26.60;;;;;;10509721;28;20238;-74
2022/06/15 01:10:50;;;;;;;4.53;3.00;;;20.10;27.00;;;;;;10505510;28;20335;-74
2022/06/15 01:16:01;;;;;;;3.40;3.10;;;20.00;27.50;;;;;;10503849;28;20888;-74
2022/06/15 01:21:17;;;;;;;3.43;3.13;;;20.00;27.20;;;;;;10500299;28;20216;-74
2022/06/15 01:27:05;;;;;;;3.30;3.00;;;19.90;27.50;;;;;;10507672;28;20228;-74
2022/06/15 01:32:15;;;;;;;3.70;3.10;;;19.90;27.10;;;;;;10510106;28;20230;-74
2022/06/15 01:37:24;;;;;;;3.90;2.70;;;19.90;27.50;;;;;;10560282;27;20251;-74
2022/06/15 01:42:31;;;;;;;4.27;3.00;;;19.80;27.30;;;;;;10552611;27;20232;-74
2022/06/15 01:47:39;;;;;;;4.17;2.83;;;19.70;27.30;;;;;;10551451;28;20274;-74
2022/06/15 01:52:45;;;;;;;2.93;2.73;;;19.60;27.40;;;;;;10549649;27;20238;-74
2022/06/15 01:57:53;;;;;;;4.27;2.50;;;19.60;28.00;;;;;;10524755;28;20704;-74
2022/06/15 02:03:05;;;;;;;4.17;3.00;;;19.50;27.50;;;;;;10508562;28;20234;-74
2022/06/15 02:08:15;;;;;;;3.27;2.93;;;19.40;27.90;;;;;;10509336;28;20261;-74
2022/06/15 02:13:26;;;;;;;3.10;2.90;;;19.40;27.70;;;;;;10496563;28;20223;-74
2022/06/15 02:18:33;;;;;;;3.50;3.20;;;19.30;27.80;;;;;;10496877;28;20249;-74
2022/06/15 02:23:44;;;;;;;3.27;2.60;;;19.20;27.90;;;;;;10498634;28;20244;-74
2022/06/15 02:28:51;;;;;;;3.13;2.83;;;19.20;27.70;;;;;;10507828;28;20231;-74
2022/06/15 02:33:57;;;;;;;5.43;2.80;;;19.00;27.80;;;;;;10509632;28;20935;-74
2022/06/15 02:39:00;;;;;;;3.30;3.00;;;18.90;27.80;;;;;;10498159;28;20224;-74
2022/06/15 02:44:06;;;;;;;3.60;2.60;;;18.80;27.60;;;;;;10509065;28;20696;-74
2022/06/15 02:49:11;;;;;;;3.07;2.77;;;18.80;27.90;;;;;;10505209;28;20789;-74
2022/06/15 02:54:21;;;;;;;3.70;3.00;;;18.70;28.00;;;;;;10509585;28;20310;-74
2022/06/15 02:59:24;;;;;;;4.57;3.60;;;18.70;28.50;;;;;;10506311;28;20776;-74
2022/06/15 03:04:29;;;;;;;3.63;3.33;;;18.60;27.80;;;;;;10502882;28;20258;-74
2022/06/15 03:09:33;;;;;;;4.50;3.10;;;18.60;28.30;;;;;;10499447;28;20246;-74
2022/06/15 03:14:40;;;;;;;4.00;3.60;;;18.50;27.80;;;;;;10496252;28;20219;-74
2022/06/15 03:19:45;;;;;;;4.73;3.70;;;18.40;28.00;;;;;;10502451;28;20231;-74
2022/06/15 03:24:48;;;;;;;3.10;2.90;;;18.30;28.30;;;;;;10497646;28;20227;-74
2022/06/15 03:29:53;;;;;;;3.23;2.93;;;18.20;28.10;;;;;;10508587;28;20216;-74
2022/06/15 03:34:57;;;;;;;3.50;3.20;;;18.00;28.20;;;;;;10504553;28;20329;-74
2022/06/15 03:40:00;;;;;;;3.73;3.43;;;18.00;28.70;;;;;;10506877;28;20224;-74
2022/06/15 03:45:04;;;;;;;5.50;3.50;;;17.90;28.50;;;;;;10505659;27;20691;-74
2022/06/15 03:50:10;;;;;;;3.80;3.50;;;17.80;28.70;;;;;;10508401;28;20310;-74
2022/06/15 03:55:13;;;;;;;3.20;2.90;;;17.80;29.10;;;;;;10514709;28;20719;-74
2022/06/15 04:00:18;;;;;;;4.40;3.33;;;17.80;28.80;;;;;;10515188;28;20227;-75
2022/06/15 04:05:26;;;;;;;4.00;3.60;;;17.70;29.10;;;;;;10505337;28;20255;-74
2022/06/15 04:10:30;;;;;;;4.37;3.40;;;17.80;30.00;;;;;;10507706;28;20236;-74
2022/06/15 04:15:33;;;;;;;4.43;3.43;;;17.80;29.10;;;;;;10508573;28;20223;-74
2022/06/15 04:20:40;;;;;;;4.20;3.80;;;17.70;29.20;;;;;;10503871;28;20216;-74
2022/06/15 04:25:46;;;;;;;5.53;3.93;;;17.60;29.80;;;;;;10498977;28;20238;-74
2022/06/15 04:30:49;;;;;;;4.60;4.20;;;17.60;30.00;;;;;;10508952;28;20231;-74
2022/06/15 04:35:54;;;;;;;6.27;4.33;;;17.50;29.70;;;;;;10508907;28;20239;-74
2022/06/15 04:40:57;;;;;;;5.13;4.30;;;17.40;30.20;;;;;;10507401;28;20230;-74
2022/06/15 04:46:03;;;;;;;4.07;3.77;;;17.40;30.10;;;;;;10507192;28;20244;-74
2022/06/15 04:51:13;;;;;;;4.10;3.70;;;17.40;30.20;;;;;;10541067;28;20219;-74
2022/06/15 04:56:16;;;;;;;4.10;3.73;;;17.40;31.90;;;;;;10536787;28;21032;-75
2022/06/15 05:01:20;;;;;;;4.37;3.80;;;17.50;30.70;;;;;;10555347;27;21218;-74
2022/06/15 05:06:36;;;;;;;5.40;4.40;;;17.60;31.20;;;;;;10545878;28;20238;-74
2022/06/15 05:11:40;;;;;;;4.13;3.83;;;17.60;32.70;;;;;;10554204;27;20227;-74
2022/06/15 05:16:43;;;;;;;4.13;3.73;;;17.80;31.20;;;;;;10545358;28;20223;-74
2022/06/15 05:21:48;;;;;;;4.03;3.73;;;17.90;31.50;;;;;;10550445;28;20227;-75
2022/06/15 05:26:51;;;;;;;5.53;4.13;;;18.00;32.20;;;;;;10515183;28;20219;-74
2022/06/15 05:31:55;;;;;;;5.53;3.73;;;18.10;31.70;;;;;;10549779;28;20218;-74
2022/06/15 05:36:59;;;;;;;4.60;3.83;;;18.30;31.80;;;;;;10511313;28;20913;-75
2022/06/15 05:42:04;;;;;;;4.50;4.20;;;18.40;32.30;;;;;;10511423;28;20311;-75
2022/06/15 05:47:07;;;;;;;6.53;4.20;;;18.60;32.20;;;;;;10517850;28;20342;-75
2022/06/15 05:52:13;;;;;;;6.63;3.90;;;18.70;31.60;;;;;;10544825;28;20222;-75
2022/06/15 05:57:19;;;;;;;4.20;3.80;;;18.90;31.70;;;;;;10540776;28;20222;-75
2022/06/15 06:02:25;;;;;;;5.27;4.20;;;19.20;31.90;;;;;;10546164;28;20588;-75
2022/06/15 06:07:30;;;;;;;4.50;4.00;;;19.40;31.90;;;;;;10542021;27;20752;-75
2022/06/15 06:12:33;;;;;;;3.70;3.37;;;19.70;32.00;;;;;;10541781;28;20846;-75
2022/06/15 06:17:36;;;;;;;4.97;3.77;;;19.90;31.80;;;;;;10536182;27;20979;-75
2022/06/15 06:22:41;;;;;;;3.53;3.23;;;20.20;31.30;;;;;;10549202;28;20220;-75
2022/06/15 06:27:44;;;;;;;3.60;2.97;;;20.40;31.30;;;;;;10544826;28;20239;-75
2022/06/15 06:32:47;;;;;;;3.67;3.30;;;20.70;31.10;;;;;;10546287;28;20243;-75
2022/06/15 06:37:52;;;;;;;3.67;3.03;;;20.90;30.80;;;;;;10548220;28;20238;-75
2022/06/15 06:42:55;;;;;;;3.90;3.03;;;21.20;30.90;;;;;;10548154;27;20227;-75
2022/06/15 06:48:00;;;;;;;4.17;3.20;;;21.40;30.80;;;;;;10511406;28;20227;-75
2022/06/15 06:53:06;;;;;;;3.77;3.10;;;21.60;30.40;;;;;;10523835;28;20899;-74
2022/06/15 06:58:10;;;;;;;4.40;3.07;;;21.80;30.40;;;;;;10541692;28;20226;-73
2022/06/15 07:03:13;;;;;;;3.20;3.00;;;22.10;30.10;;;;;;10556455;27;20955;-73
2022/06/15 07:08:18;;;;;;;4.50;3.50;;;22.30;30.00;;;;;;10559334;27;20647;-74
2022/06/15 07:13:21;;;;;;;3.90;3.53;;;22.50;29.80;;;;;;10555367;27;20487;-73
2022/06/15 07:18:24;;;;;;;3.57;3.27;;;22.70;29.70;;;;;;10561109;27;20233;-74
2022/06/15 07:23:29;;;;;;;4.10;3.13;;;22.90;29.60;;;;;;10560136;27;20309;-74
2022/06/15 07:28:32;;;;;;;5.07;3.03;;;23.10;29.40;;;;;;10554508;27;20226;-73
2022/06/15 07:33:38;;;;;;;3.63;3.10;;;23.30;29.60;;;;;;10554971;27;20231;-73
2022/06/15 07:38:42;;;;;;;3.37;3.07;;;23.60;29.20;;;;;;10554864;27;20230;-73
2022/06/15 07:43:45;;;;;;;6.13;2.97;;;23.80;29.00;;;;;;10560909;27;20603;-74
2022/06/15 07:54:16;;;;;;;3.93;2.93;;;24.10;28.60;;;;;;10546356;27;20307;-74
2022/06/15 07:59:20;;;;;;;4.23;2.80;;;24.30;28.20;;;;;;10563579;27;20250;-73
2022/06/15 08:04:23;;;;;;;4.20;3.10;;;24.50;28.90;;;;;;10559154;27;20700;-74
2022/06/15 08:09:28;;;;;;;3.23;2.60;;;24.70;28.50;;;;;;10561183;27;20229;-74
2022/06/15 08:14:32;;;;;;;3.30;2.90;;;24.90;28.20;;;;;;10554400;27;20222;-74
2022/06/15 08:19:38;;;;;;;3.40;2.90;;;25.10;28.20;;;;;;10545980;28;20226;-74
2022/06/15 08:24:45;;;;;;;3.50;3.20;;;25.40;27.70;;;;;;10546218;27;20785;-74
2022/06/15 08:29:50;;;;;;;2.97;2.73;;;25.60;27.30;;;;;;10549443;27;20227;-74
2022/06/15 08:34:53;;;;;;;4.37;3.10;;;25.80;27.30;;;;;;10552332;27;20258;-74
2022/06/15 08:39:57;;;;;;;3.10;2.80;;;25.90;26.90;;;;;;10550399;27;20725;-75
2022/06/15 08:45:11;;;;;;;5.03;2.90;;;26.10;27.10;;;;;;10558388;28;20222;-74
2022/06/15 08:50:20;;;;;;;3.67;2.43;;;26.40;26.00;;;;;;10545568;27;20223;-74
2022/06/15 08:55:35;;;;;;;2.80;2.60;;;26.50;25.40;;;;;;10550465;28;21068;-74
2022/06/15 09:00:40;;;;;;;2.83;2.27;;;26.70;25.30;;;;;;10554413;28;20222;-74
2022/06/15 09:05:55;;;;;;;2.53;2.30;;;26.90;25.20;;;;;;10545904;28;20239;-74
2022/06/15 09:11:10;;;;;;;3.33;2.40;;;27.00;24.70;;;;;;10524417;28;20225;-74
2022/06/15 09:16:27;;;;;;;4.60;2.70;;;27.20;24.80;;;;;;10533715;28;20280;-74
2022/06/15 09:21:35;;;;;;;3.80;2.27;;;27.40;24.60;;;;;;10555825;28;20230;-75
2022/06/15 09:26:46;;;;;;;6.27;2.50;;;27.60;25.00;;;;;;10552867;27;20239;-74
2022/06/15 09:31:55;;;;;;;2.50;2.30;;;27.80;24.20;;;;;;10545299;28;20716;-73
2022/06/15 09:36:58;;;;;;;2.37;2.17;;;28.00;23.80;;;;;;10548727;27;20234;-74
2022/06/15 09:42:12;;;;;;;3.43;2.43;;;28.20;24.10;;;;;;10546431;28;20231;-76
2022/06/15 09:47:31;;;;;;;3.57;2.33;;;28.40;23.00;;;;;;10548069;27;20250;-74
2022/06/15 09:52:55;;;;;;;2.30;2.10;;;28.60;23.00;;;;;;10546481;27;20226;-74
2022/06/15 09:58:02;;;;;;;2.20;2.03;;;28.80;22.50;;;;;;10551131;28;20306;-74
2022/06/15 10:03:15;;;;;;;2.80;2.20;;;28.90;22.60;;;;;;10536875;27;20425;-75
2022/06/15 10:08:19;;;;;;;2.93;2.10;;;29.10;22.40;;;;;;10540308;27;20608;-74
2022/06/15 10:13:32;;;;;;;2.37;1.70;;;29.40;23.00;;;;;;10538664;27;20230;-74
2022/06/15 10:18:43;;;;;;;1.63;1.53;;;29.50;20.90;;;;;;10539682;27;20223;-75
2022/06/15 10:23:54;;;;;;;2.53;2.07;;;29.60;20.90;;;;;;10536535;28;20719;-75
2022/06/15 10:29:05;;;;;;;4.50;1.90;;;29.70;20.90;;;;;;10542869;28;20268;-75
2022/06/15 10:34:21;;;;;;;1.80;1.70;;;29.80;19.80;;;;;;10537706;28;20764;-74
2022/06/15 10:39:28;;;;;;;2.17;1.93;;;29.90;19.70;;;;;;10541717;27;20227;-73
2022/06/15 10:44:36;;;;;;;9.40;2.60;;;30.00;19.60;;;;;;10540198;28;20234;-73
2022/06/15 10:49:44;;;;;;;4.70;2.37;;;30.10;20.10;;;;;;10543680;28;20223;-74
2022/06/15 11:05:40;;;;;;;2.77;1.83;;;30.30;19.70;;;;;;10542936;28;20223;-74
2022/06/15 11:10:46;;;;;;;3.37;1.90;;;30.30;19.70;;;;;;10544789;28;20222;-74
2022/06/15 11:21:18;;;;;;;2.40;2.17;;;30.60;19.90;;;;;;10544790;28;20215;-73
2022/06/15 11:31:52;;;;;;;2.20;2.00;;;30.80;18.80;;;;;;10540878;28;20330;-76
2022/06/15 11:36:59;;;;;;;2.07;1.97;;;30.90;18.00;;;;;;10548673;28;20252;-77
2022/06/15 11:42:03;;;;;;;2.00;1.70;;;30.90;17.90;;;;;;10555062;28;20219;-77
2022/06/15 11:47:21;;;;;;;1.80;1.70;;;30.90;18.70;;;;;;10543067;27;20226;-75
2022/06/15 11:52:48;;;;;;;1.73;1.63;;;30.90;17.60;;;;;;10551071;27;20661;-75
2022/06/15 11:58:20;;;;;;;2.17;2.03;;;30.90;17.90;;;;;;10551626;27;21150;-75
2022/06/15 12:03:43;;;;;;;2.10;2.00;;;31.00;18.40;;;;;;10517580;28;20220;-76
2022/06/15 12:08:55;;;;;;;1.70;1.60;;;31.10;18.00;;;;;;10511601;28;20280;-76
2022/06/15 12:14:04;;;;;;;1.53;1.50;;;31.10;16.70;;;;;;10511534;28;20859;-78
2022/06/15 12:19:25;;;;;;;1.90;1.70;;;31.20;16.60;;;;;;10513725;28;20242;-76
2022/06/15 12:24:36;;;;;;;3.13;1.90;;;31.20;16.50;;;;;;10508906;28;20747;-75
2022/06/15 12:29:50;;;;;;;1.67;1.53;;;31.20;16.80;;;;;;10507553;28;20270;-76
2022/06/15 12:35:01;;;;;;;2.07;1.70;;;31.10;16.80;;;;;;10501449;28;20227;-75
2022/06/15 12:40:18;;;;;;;1.70;1.60;;;31.20;16.00;;;;;;10507211;28;20223;-76
2022/06/15 12:45:25;;;;;;;1.67;1.57;;;31.30;16.50;;;;;;10509682;28;20241;-77
2022/06/15 12:50:38;;;;;;;1.90;1.70;;;31.40;16.90;;;;;;10511207;28;20215;-75
2022/06/15 12:55:49;;;;;;;2.20;1.60;;;31.40;16.20;;;;;;10508977;28;20231;-77
2022/06/15 13:00:57;;;;;;;1.90;1.70;;;31.50;15.90;;;;;;10507335;28;20220;-76
2022/06/15 13:06:25;;;;;;;1.80;1.70;;;31.50;15.70;;;;;;10515920;28;20695;-75
2022/06/15 13:11:29;;;;;;;1.73;1.63;;;31.50;16.00;;;;;;10507602;28;20219;-77
2022/06/15 13:16:38;;;;;;;1.90;1.80;;;31.50;16.10;;;;;;10500925;28;20224;-77
2022/06/15 13:21:55;;;;;;;1.60;1.50;;;31.60;15.90;;;;;;10510329;28;20931;-76
2022/06/15 13:27:02;;;;;;;2.00;1.80;;;31.70;15.40;;;;;;10501307;28;20952;-77
2022/06/15 13:32:06;;;;;;;4.73;1.97;;;31.80;15.40;;;;;;10508105;28;20230;-77
2022/06/15 13:37:24;;;;;;;1.97;1.70;;;31.80;15.90;;;;;;10537522;27;20912;-76
2022/06/15 13:42:32;;;;;;;1.73;1.63;;;31.90;15.30;;;;;;10518019;28;20239;-76
2022/06/15 13:47:53;;;;;;;5.37;2.27;;;32.00;15.40;;;;;;10549674;28;20318;-76
2022/06/15 13:53:01;;;;;;;1.97;1.77;;;32.10;15.00;;;;;;10551564;27;21122;-75
2022/06/15 13:58:20;;;;;;;1.60;1.50;;;32.10;14.90;;;;;;10539884;27;20257;-76
2022/06/15 14:03:28;;;;;;;1.60;1.50;;;32.10;14.90;;;;;;10544549;27;20223;-76
2022/06/15 14:09:05;;;;;;;1.80;1.70;;;32.10;14.80;;;;;;10545846;28;20293;-76
2022/06/15 14:14:30;;;;;;;2.87;1.70;;;32.20;14.60;;;;;;10554767;27;20218;-76
2022/06/15 14:19:38;;;;;;;1.83;1.67;;;32.20;14.60;;;;;;10555919;27;20229;-76
2022/06/15 14:24:43;;;;;;;2.17;1.50;;;32.20;14.40;;;;;;10521115;27;20585;-75
2022/06/15 14:29:46;;;;;;;1.60;1.50;;;32.30;14.30;;;;;;10502116;28;20226;-76
2022/06/15 14:34:49;;;;;;;1.77;1.67;;;32.30;14.60;;;;;;10508341;28;20227;-76
2022/06/15 14:39:55;;;;;;;1.80;1.70;;;32.30;14.60;;;;;;10498854;28;20716;-76
2022/06/15 14:45:15;;;;;;;1.90;1.80;;;32.30;14.30;;;;;;10504155;28;20274;-75
2022/06/15 14:50:19;;;;;;;1.90;1.60;;;32.30;14.30;;;;;;10497648;28;20322;-75
2022/06/15 14:55:26;;;;;;;1.80;1.70;;;32.50;14.90;;;;;;10505594;28;20240;-76
2022/06/15 15:00:34;;;;;;;3.10;1.67;;;32.60;14.20;;;;;;10505638;28;20716;-76
2022/06/15 15:05:39;;;;;;;1.70;1.60;;;32.70;14.00;;;;;;10504252;28;20668;-76
2022/06/15 15:10:50;;;;;;;1.77;1.67;;;32.80;14.30;;;;;;10505504;28;20597;-76
2022/06/15 15:15:57;;;;;;;2.10;1.90;;;32.80;13.60;;;;;;10502151;28;20225;-76
2022/06/15 15:21:20;;;;;;;1.80;1.70;;;32.70;14.00;;;;;;10508349;28;20220;-76
2022/06/15 15:26:32;;;;;;;3.57;1.80;;;32.70;14.30;;;;;;10515670;28;20227;-76
2022/06/15 15:42:28;;;;;;;2.07;1.70;;;32.80;14.20;;;;;;10520546;28;20660;-77
2022/06/15 15:47:32;;;;;;;2.10;1.90;;;32.90;13.70;;;;;;10512497;28;20240;-77
2022/06/15 15:52:43;;;;;;;1.90;1.80;;;32.90;13.80;;;;;;10521694;28;20755;-75
2022/06/15 15:57:51;;;;;;;1.70;1.60;;;32.90;13.50;;;;;;10495228;28;21252;-76
2022/06/15 16:02:56;;;;;;;1.87;1.77;;;33.00;13.70;;;;;;10495904;28;20727;-75
2022/06/15 16:08:01;;;;;;;1.73;1.63;;;33.10;13.40;;;;;;10503231;28;21016;-75
2022/06/15 16:13:08;;;;;;;1.70;1.60;;;33.20;13.90;;;;;;10503990;28;20220;-75
2022/06/15 16:18:15;;;;;;;2.40;1.80;;;33.20;14.20;;;;;;10493342;28;20228;-75
2022/06/15 16:23:20;;;;;;;1.90;1.80;;;33.20;14.00;;;;;;10499034;28;20235;-74
2022/06/15 16:28:25;;;;;;;2.07;1.60;;;33.20;13.30;;;;;;10497776;28;20241;-74
2022/06/15 16:33:29;;;;;;;2.80;1.70;;;33.20;13.40;;;;;;10498957;28;20232;-74
2022/06/15 16:38:32;;;;;;;1.70;1.60;;;33.30;13.40;;;;;;10514889;28;20219;-74
2022/06/15 16:43:37;;;;;;;1.93;1.83;;;33.40;13.40;;;;;;10512106;28;20592;-74
2022/06/15 16:48:41;;;;;;;1.87;1.63;;;33.40;13.00;;;;;;10507672;28;20223;-74
2022/06/15 16:53:45;;;;;;;2.27;2.07;;;33.50;13.80;;;;;;10505290;28;20228;-74
2022/06/15 16:58:49;;;;;;;1.83;1.73;;;33.50;13.60;;;;;;10509929;28;20224;-74
2022/06/15 17:03:54;;;;;;;1.97;1.80;;;33.60;13.10;;;;;;10504750;28;20306;-74
2022/06/15 17:09:01;;;;;;;1.80;1.70;;;33.50;13.20;;;;;;10515450;28;20224;-74
2022/06/15 17:14:06;;;;;;;1.60;1.50;;;33.60;13.70;;;;;;10505442;28;20224;-74
2022/06/15 17:19:10;;;;;;;1.83;1.73;;;33.50;13.40;;;;;;10509952;28;20239;-74
2022/06/15 17:24:14;;;;;;;1.70;1.60;;;33.50;13.40;;;;;;10509647;28;20228;-74
2022/06/15 17:29:23;;;;;;;1.80;1.60;;;33.60;14.00;;;;;;10510942;28;20231;-74
2022/06/15 17:34:28;;;;;;;1.70;1.60;;;33.50;14.00;;;;;;10506877;28;20896;-74
2022/06/15 17:39:32;;;;;;;1.80;1.70;;;33.50;14.50;;;;;;10507951;28;20223;-74
2022/06/15 17:44:39;;;;;;;2.13;1.93;;;33.40;14.80;;;;;;10507063;28;21088;-74
2022/06/15 17:49:43;;;;;;;1.80;1.70;;;33.30;14.50;;;;;;10506776;28;20236;-74
2022/06/15 17:54:46;;;;;;;2.20;2.00;;;33.20;14.60;;;;;;10508862;28;20882;-74
2022/06/15 17:59:51;;;;;;;1.90;1.80;;;33.20;14.60;;;;;;10512840;28;20224;-74
2022/06/15 18:04:54;;;;;;;2.10;1.90;;;33.00;14.80;;;;;;10505158;28;20598;-73
2022/06/15 18:09:58;;;;;;;5.80;5.30;;;33.00;15.00;;;;;;10505248;28;20238;-73
2022/06/15 18:15:15;;;;;;;18.43;16.73;;;32.90;14.90;;;;;;10507880;28;20228;-73
2022/06/15 18:20:23;;;;;;;11.87;10.80;;;32.70;15.10;;;;;;10510284;28;20599;-73
2022/06/15 18:25:26;;;;;;;5.80;5.30;;;32.50;15.30;;;;;;10503353;28;20588;-73
2022/06/15 18:30:31;;;;;;;5.33;4.70;;;32.30;15.10;;;;;;10506424;28;20224;-73
2022/06/15 18:35:38;;;;;;;3.20;3.00;;;32.20;16.10;;;;;;10505964;28;20243;-73
2022/06/15 18:40:42;;;;;;;2.70;2.50;;;32.00;16.20;;;;;;10506210;28;20234;-73
2022/06/15 18:51:07;;;;;;;2.50;2.40;;;31.80;16.70;;;;;;10542055;28;20683;-73
2022/06/15 18:56:10;;;;;;;2.40;2.20;;;31.70;16.70;;;;;;10550798;27;20234;-73
2022/06/15 19:01:15;;;;;;;2.23;2.13;;;31.50;16.90;;;;;;10549424;27;20223;-74
2022/06/15 19:06:18;;;;;;;2.00;1.90;;;31.40;17.10;;;;;;10547105;27;20230;-73
2022/06/15 19:11:23;;;;;;;2.27;1.90;;;31.30;17.00;;;;;;10556433;27;20872;-73
2022/06/15 19:16:28;;;;;;;2.50;2.30;;;31.10;17.50;;;;;;10549920;27;20268;-73
2022/06/15 19:21:31;;;;;;;2.23;2.03;;;31.00;17.90;;;;;;10548531;28;20250;-72
2022/06/15 19:26:40;;;;;;;3.07;2.40;;;30.80;17.90;;;;;;10557666;28;20242;-72
2022/06/15 19:31:45;;;;;;;2.27;2.07;;;30.60;18.10;;;;;;10546892;28;20231;-73
2022/06/15 19:36:48;;;;;;;2.13;2.03;;;30.40;18.10;;;;;;10549415;28;20227;-72
2022/06/15 19:41:53;;;;;;;1.90;1.80;;;30.30;18.40;;;;;;10551682;27;20226;-72
2022/06/15 19:46:58;;;;;;;3.80;2.07;;;30.10;18.50;;;;;;10548436;27;20315;-72
2022/06/15 19:52:02;;;;;;;2.57;2.10;;;30.00;18.80;;;;;;10502246;28;20311;-72
2022/06/15 19:57:06;;;;;;;2.20;2.00;;;29.80;18.50;;;;;;10498090;28;20624;-74
2022/06/15 20:02:11;;;;;;;2.00;1.90;;;29.70;18.70;;;;;;10493943;28;20232;-75
2022/06/15 20:07:17;;;;;;;2.40;2.20;;;29.50;19.20;;;;;;10510576;28;20638;-75
2022/06/15 20:12:22;;;;;;;3.30;2.60;;;29.30;19.30;;;;;;10552869;27;20707;-75
2022/06/15 20:17:27;;;;;;;2.67;2.47;;;29.10;19.20;;;;;;10541779;27;20590;-75
2022/06/15 20:22:37;;;;;;;2.57;2.37;;;28.90;19.70;;;;;;10555116;28;20218;-75
2022/06/15 20:27:47;;;;;;;3.20;2.73;;;28.80;20.30;;;;;;10545911;28;20227;-75
2022/06/15 20:32:52;;;;;;;3.90;3.50;;;28.50;20.30;;;;;;10546522;28;20219;-75
2022/06/15 20:37:55;;;;;;;3.40;3.10;;;28.40;20.30;;;;;;10559435;27;20929;-75
2022/06/15 20:43:00;;;;;;;3.80;3.40;;;28.30;20.20;;;;;;10559323;28;20222;-75
2022/06/15 20:48:07;;;;;;;3.77;3.47;;;28.10;20.20;;;;;;10508985;28;20223;-74
2022/06/15 20:53:12;;;;;;;3.83;3.20;;;27.90;20.80;;;;;;10511938;28;20243;-74
2022/06/15 20:58:15;;;;;;;4.30;3.70;;;27.70;20.70;;;;;;10530500;27;20239;-74
2022/06/15 21:03:20;;;;;;;3.57;3.27;;;27.50;20.70;;;;;;10548586;27;20606;-74
2022/06/15 21:08:25;;;;;;;3.23;2.93;;;27.30;21.10;;;;;;10549242;27;20231;-74
2022/06/15 21:18:55;;;;;;;4.10;3.80;;;26.90;20.90;;;;;;10524838;28;20227;-74
2022/06/15 21:23:58;;;;;;;4.27;3.90;;;26.50;21.50;;;;;;10547401;27;20337;-74
2022/06/15 21:29:02;;;;;;;3.63;3.33;;;26.10;21.60;;;;;;10549783;27;20227;-74
2022/06/15 21:34:07;;;;;;;3.27;3.07;;;25.70;21.80;;;;;;10547815;28;20226;-74
2022/06/15 21:39:10;;;;;;;3.67;3.00;;;25.50;22.70;;;;;;10544038;28;20237;-75
2022/06/15 21:44:14;;;;;;;3.37;3.07;;;25.10;22.70;;;;;;10550354;28;20223;-74
2022/06/15 21:49:21;;;;;;;3.17;2.97;;;24.90;23.00;;;;;;10547323;27;20638;-75
2022/06/15 21:54:24;;;;;;;2.90;2.70;;;24.60;23.70;;;;;;10556631;27;20234;-75
2022/06/15 21:59:28;;;;;;;4.17;3.77;;;24.40;23.40;;;;;;10548885;28;20628;-75
2022/06/15 22:04:32;;;;;;;3.93;3.63;;;24.40;24.00;;;;;;10545618;27;20227;-75
2022/06/15 22:09:36;;;;;;;7.73;3.53;;;24.30;24.70;;;;;;10551530;27;20237;-75
2022/06/15 22:14:41;;;;;;;6.23;3.90;;;24.30;24.50;;;;;;10527836;27;20224;-75
2022/06/15 22:19:46;;;;;;;3.80;3.50;;;24.20;24.40;;;;;;10536501;27;20228;-75
2022/06/15 22:24:49;;;;;;;3.43;3.13;;;24.20;25.00;;;;;;10551399;27;20228;-75
2022/06/15 22:29:53;;;;;;;3.30;3.10;;;24.10;24.80;;;;;;10543689;27;20548;-74
2022/06/15 22:34:59;;;;;;;3.27;3.07;;;24.10;24.80;;;;;;10551353;27;20230;-75
2022/06/15 22:40:02;;;;;;;2.80;2.60;;;24.10;25.50;;;;;;10540391;27;20226;-75
2022/06/15 22:45:07;;;;;;;2.90;2.70;;;24.00;25.00;;;;;;10553490;27;20241;-75
2022/06/15 22:55:34;;;;;;;4.90;3.57;;;23.60;26.40;;;;;;10547174;27;20232;-75
2022/06/15 23:00:38;;;;;;;4.60;4.10;;;23.30;25.60;;;;;;10547727;28;20222;-75
2022/06/15 23:05:43;;;;;;;4.20;3.90;;;23.30;25.90;;;;;;10550209;28;20238;-75
2022/06/15 23:10:46;;;;;;;3.47;3.27;;;23.20;26.60;;;;;;10551567;28;20238;-75
2022/06/15 23:15:50;;;;;;;3.70;3.40;;;23.10;26.10;;;;;;10552363;28;20214;-75
2022/06/15 23:20:55;;;;;;;3.67;3.37;;;23.10;26.50;;;;;;10545420;27;20227;-75
2022/06/15 23:25:59;;;;;;;3.53;3.23;;;23.00;27.30;;;;;;10549644;27;20318;-75
2022/06/15 23:31:02;;;;;;;3.50;3.30;;;22.80;26.70;;;;;;10515275;27;20231;-75
2022/06/15 23:36:09;;;;;;;2.93;2.73;;;22.70;27.10;;;;;;10547104;27;20270;-75
2022/06/15 23:41:14;;;;;;;3.10;2.80;;;22.60;27.50;;;;;;10553117;27;20241;-75
2022/06/15 23:51:39;;;;;;;3.23;2.93;;;22.60;27.10;;;;;;10564937;27;20309;-75
2022/06/15 23:56:43;;;;;;;4.30;2.73;;;22.60;27.20;;;;;;10534819;27;20226;-75
